Time;durP1;ratioP1;P1;durP2;ratioP2;P2;SDS_P1;SDS_P2;PMS_P1;PMS_P2;Temp;Humidity;BMP_temperature;BMP_pressure;BME280_temperature;BME280_humidity;BME280_pressure;Samples;Min_cycle;Max_cycle;Signal;HPM_P1;HPM_P2
2023/02/12 00:01:48;;;;;;;9.40;6.43;;;;;;;;;;5092076;28;20200;-78
2023/02/12 00:04:15;;;;;;;8.67;6.07;;;;;;;;;;5096044;28;20199;-78
2023/02/12 00:06:42;;;;;;;9.70;6.43;;;;;;;;;;5112520;28;20283;-78
2023/02/12 00:09:09;;;;;;;7.23;5.70;;;;;;;;;;5098265;28;20199;-78
2023/02/12 00:11:37;;;;;;;13.83;9.73;;;;;;;;;;5101130;28;20196;-78
2023/02/12 00:14:04;;;;;;;18.10;12.20;;;;;;;;;;5110237;28;20216;-78
2023/02/12 00:16:31;;;;;;;22.57;14.30;;;;;;;;;;5112410;28;20206;-78
2023/02/12 00:18:58;;;;;;;44.50;19.73;;;;;;;;;;5098292;28;20647;-78
2023/02/12 00:21:25;;;;;;;24.53;13.87;;;;;;;;;;5111765;28;20582;-78
2023/02/12 00:23:52;;;;;;;49.63;26.37;;;;;;;;;;5111607;28;20211;-78
2023/02/12 00:26:20;;;;;;;29.47;14.30;;;;;;;;;;5112021;28;20203;-78
2023/02/12 00:28:48;;;;;;;17.83;11.03;;;;;;;;;;5111423;28;20206;-78
2023/02/12 00:31:17;;;;;;;15.00;9.17;;;;;;;;;;5099282;28;20227;-79
2023/02/12 00:33:44;;;;;;;16.37;9.83;;;;;;;;;;5091358;28;20688;-79
2023/02/12 00:36:14;;;;;;;16.53;9.50;;;;;;;;;;5105363;28;20226;-79
2023/02/12 00:38:41;;;;;;;22.93;13.50;;;;;;;;;;5104480;28;20261;-78
2023/02/12 00:41:08;;;;;;;31.23;17.27;;;;;;;;;;5104820;28;20207;-78
2023/02/12 00:43:35;;;;;;;11.33;8.77;;;;;;;;;;5091755;28;20200;-78
2023/02/12 00:46:03;;;;;;;10.73;7.70;;;;;;;;;;5091973;28;20295;-77
2023/02/12 00:48:30;;;;;;;12.47;9.27;;;;;;;;;;5111899;28;21232;-78
2023/02/12 00:50:57;;;;;;;9.07;6.37;;;;;;;;;;5109470;28;20204;-78
2023/02/12 00:53:24;;;;;;;8.40;6.30;;;;;;;;;;5100390;28;20655;-78
2023/02/12 00:55:50;;;;;;;16.13;10.20;;;;;;;;;;5097366;28;20200;-78
2023/02/12 00:58:17;;;;;;;18.30;9.97;;;;;;;;;;5111307;28;20204;-78
2023/02/12 01:00:44;;;;;;;9.37;6.57;;;;;;;;;;5110879;28;20598;-83
2023/02/12 01:03:12;;;;;;;12.87;7.37;;;;;;;;;;5103215;28;20258;-78
2023/02/12 01:05:39;;;;;;;9.73;6.47;;;;;;;;;;5093564;28;20214;-78
2023/02/12 01:08:06;;;;;;;7.37;6.27;;;;;;;;;;5111327;28;20200;-78
2023/02/12 01:10:33;;;;;;;11.63;6.20;;;;;;;;;;5094928;28;20203;-78
2023/02/12 01:13:00;;;;;;;6.47;5.60;;;;;;;;;;5091133;28;20698;-78
2023/02/12 01:15:27;;;;;;;7.97;5.60;;;;;;;;;;5090742;28;20253;-78
2023/02/12 01:17:54;;;;;;;10.30;5.20;;;;;;;;;;5091110;28;20207;-78
2023/02/12 01:20:24;;;;;;;8.63;6.10;;;;;;;;;;5107792;28;20206;-80
2023/02/12 01:22:51;;;;;;;9.17;6.57;;;;;;;;;;5111867;28;20199;-78
2023/02/12 01:25:18;;;;;;;10.80;6.50;;;;;;;;;;5093557;28;20221;-79
2023/02/12 01:27:45;;;;;;;36.43;18.73;;;;;;;;;;5090767;28;20196;-79
2023/02/12 01:30:14;;;;;;;36.93;23.63;;;;;;;;;;5091274;28;20201;-78
2023/02/12 01:32:40;;;;;;;31.70;18.87;;;;;;;;;;5102736;28;20264;-78
2023/02/12 01:35:09;;;;;;;28.10;17.90;;;;;;;;;;5107384;28;20266;-78
2023/02/12 01:37:38;;;;;;;21.97;14.93;;;;;;;;;;5106775;28;20298;-79
2023/02/12 01:40:06;;;;;;;14.63;10.40;;;;;;;;;;5115052;28;20188;-79
2023/02/12 01:42:33;;;;;;;21.40;14.40;;;;;;;;;;5114961;28;20260;-79
2023/02/12 01:45:44;;;;;;;10.17;7.63;;;;;;;;;;5114725;28;20220;-79
2023/02/12 01:48:11;;;;;;;10.37;6.30;;;;;;;;;;5089689;28;20291;-78
2023/02/12 01:50:38;;;;;;;5.93;5.13;;;;;;;;;;5107378;28;20199;-78
2023/02/12 01:53:08;;;;;;;9.10;5.73;;;;;;;;;;5109157;28;20235;-78
2023/02/12 01:55:35;;;;;;;7.40;5.63;;;;;;;;;;5107659;28;20199;-78
2023/02/12 01:58:02;;;;;;;6.63;4.93;;;;;;;;;;5114949;28;20206;-78
2023/02/12 02:00:29;;;;;;;7.43;5.50;;;;;;;;;;5114639;28;20253;-79
2023/02/12 02:02:58;;;;;;;5.97;5.10;;;;;;;;;;5094703;28;20204;-78
2023/02/12 02:05:30;;;;;;;6.03;4.53;;;;;;;;;;5108344;28;20199;-78
2023/02/12 02:07:57;;;;;;;6.57;4.63;;;;;;;;;;5106244;28;20212;-78
2023/02/12 02:10:25;;;;;;;9.73;6.13;;;;;;;;;;5109077;28;20195;-78
2023/02/12 02:15:37;;;;;;;6.63;5.00;;;;;;;;;;5113830;28;20206;-78
2023/02/12 02:18:08;;;;;;;5.93;5.20;;;;;;;;;;5114160;28;20757;-78
2023/02/12 02:21:18;;;;;;;10.30;6.20;;;;;;;;;;5095750;28;20291;-78
2023/02/12 02:24:16;;;;;;;9.20;5.30;;;;;;;;;;5098702;28;20673;-78
2023/02/12 02:27:15;;;;;;;11.53;5.73;;;;;;;;;;5068656;28;20222;-78
2023/02/12 02:30:10;;;;;;;7.10;5.67;;;;;;;;;;5094499;28;20253;-79
2023/02/12 02:32:42;;;;;;;5.73;5.17;;;;;;;;;;5093935;28;20281;-79
2023/02/12 02:35:12;;;;;;;6.97;5.33;;;;;;;;;;5093656;28;20208;-79
2023/02/12 02:37:41;;;;;;;6.73;5.13;;;;;;;;;;5106656;28;20211;-79
2023/02/12 02:40:10;;;;;;;9.87;5.07;;;;;;;;;;5113777;28;20196;-79
2023/02/12 02:42:39;;;;;;;5.53;4.53;;;;;;;;;;5100523;28;20211;-79
2023/02/12 02:45:10;;;;;;;12.07;6.70;;;;;;;;;;5093171;28;20763;-79
2023/02/12 02:47:41;;;;;;;12.90;7.90;;;;;;;;;;5106385;28;20682;-79
2023/02/12 02:50:12;;;;;;;12.17;9.17;;;;;;;;;;5093478;28;20261;-79
2023/02/12 02:52:43;;;;;;;11.10;6.40;;;;;;;;;;5109601;28;20219;-79
2023/02/12 02:55:11;;;;;;;6.60;5.20;;;;;;;;;;5103417;28;20688;-79
2023/02/12 02:57:42;;;;;;;9.80;4.87;;;;;;;;;;5107063;28;20204;-79
2023/02/12 03:00:14;;;;;;;7.30;4.60;;;;;;;;;;5104552;28;20199;-80
2023/02/12 03:02:46;;;;;;;5.70;4.33;;;;;;;;;;5094539;28;20215;-79
2023/02/12 03:05:19;;;;;;;9.27;4.70;;;;;;;;;;5093278;28;20204;-79
2023/02/12 03:07:48;;;;;;;7.23;5.03;;;;;;;;;;5100539;28;20196;-78
2023/02/12 03:10:18;;;;;;;7.77;4.80;;;;;;;;;;5112547;28;20199;-79
2023/02/12 03:12:51;;;;;;;6.10;4.87;;;;;;;;;;5093071;28;20202;-79
2023/02/12 03:15:21;;;;;;;6.87;4.40;;;;;;;;;;5107444;28;20670;-80
2023/02/12 03:17:50;;;;;;;6.50;5.10;;;;;;;;;;5113160;28;20196;-80
2023/02/12 03:20:20;;;;;;;6.10;5.37;;;;;;;;;;5110685;28;20204;-83
2023/02/12 03:22:50;;;;;;;10.30;5.47;;;;;;;;;;5102646;28;20207;-79
2023/02/12 03:25:18;;;;;;;8.20;5.43;;;;;;;;;;5099619;28;20195;-79
2023/02/12 03:27:47;;;;;;;10.03;5.57;;;;;;;;;;5113280;28;20268;-79
2023/02/12 03:30:15;;;;;;;7.37;5.07;;;;;;;;;;5109544;28;20196;-79
2023/02/12 03:32:45;;;;;;;6.07;4.67;;;;;;;;;;5092796;28;20736;-78
2023/02/12 03:35:17;;;;;;;8.00;5.03;;;;;;;;;;5092409;28;20223;-79
2023/02/12 03:37:50;;;;;;;6.50;4.83;;;;;;;;;;5105545;28;20637;-79
2023/02/12 03:40:19;;;;;;;6.23;4.57;;;;;;;;;;5092425;28;20261;-83
2023/02/12 03:42:50;;;;;;;15.63;8.07;;;;;;;;;;5092566;28;20200;-79
2023/02/12 03:45:23;;;;;;;15.03;8.37;;;;;;;;;;5104886;28;20270;-84
2023/02/12 03:47:53;;;;;;;11.83;6.87;;;;;;;;;;5092020;28;20752;-80
2023/02/12 03:50:28;;;;;;;8.73;4.90;;;;;;;;;;5092179;28;20652;-79
2023/02/12 03:52:54;;;;;;;6.60;4.83;;;;;;;;;;5109645;28;20591;-79
2023/02/12 03:55:21;;;;;;;8.03;5.87;;;;;;;;;;5101321;28;20680;-79
2023/02/12 03:57:52;;;;;;;7.17;4.80;;;;;;;;;;5092588;28;20214;-80
2023/02/12 04:00:21;;;;;;;14.83;9.17;;;;;;;;;;5103241;28;20199;-79
2023/02/12 04:02:48;;;;;;;73.13;35.47;;;;;;;;;;5107118;28;20207;-84
2023/02/12 04:05:22;;;;;;;18.23;10.17;;;;;;;;;;5092130;28;20200;-79
2023/02/12 04:07:49;;;;;;;9.17;6.80;;;;;;;;;;5105898;28;20319;-80
2023/02/12 04:10:16;;;;;;;6.90;5.47;;;;;;;;;;5091569;28;20197;-79
2023/02/12 04:12:48;;;;;;;11.30;6.27;;;;;;;;;;5098818;28;20277;-79
2023/02/12 04:15:34;;;;;;;10.17;6.70;;;;;;;;;;5111988;28;20234;-79
2023/02/12 04:18:06;;;;;;;18.47;9.07;;;;;;;;;;5101048;28;20200;-79
2023/02/12 04:20:42;;;;;;;13.93;7.70;;;;;;;;;;5091824;28;20286;-79
2023/02/12 04:23:16;;;;;;;13.50;8.50;;;;;;;;;;5104906;28;20256;-79
2023/02/12 04:25:50;;;;;;;17.43;9.67;;;;;;;;;;5111786;28;20265;-79
2023/02/12 04:28:25;;;;;;;11.97;7.93;;;;;;;;;;5110684;28;20206;-79
2023/02/12 04:30:59;;;;;;;7.13;5.00;;;;;;;;;;5091447;28;20265;-79
2023/02/12 04:33:27;;;;;;;7.40;5.00;;;;;;;;;;5105161;28;20561;-79
2023/02/12 04:35:59;;;;;;;7.17;5.40;;;;;;;;;;5102460;28;20203;-79
2023/02/12 04:38:29;;;;;;;12.70;7.10;;;;;;;;;;5093424;28;20209;-79
2023/02/12 04:40:56;;;;;;;12.30;8.37;;;;;;;;;;5091303;28;20204;-79
2023/02/12 04:43:28;;;;;;;18.00;11.03;;;;;;;;;;5111154;28;20204;-79
2023/02/12 04:45:54;;;;;;;24.20;11.67;;;;;;;;;;5111947;28;20797;-79
2023/02/12 04:48:22;;;;;;;18.70;11.70;;;;;;;;;;5098290;28;20199;-79
2023/02/12 04:50:48;;;;;;;16.10;10.60;;;;;;;;;;5097970;28;20204;-79
2023/02/12 04:53:16;;;;;;;26.83;16.27;;;;;;;;;;5091384;28;20200;-79
2023/02/12 04:55:43;;;;;;;16.80;11.40;;;;;;;;;;5091357;28;20224;-79
2023/02/12 04:58:10;;;;;;;13.37;8.20;;;;;;;;;;5111008;28;20261;-79
2023/02/12 05:00:37;;;;;;;10.73;6.97;;;;;;;;;;5097727;28;20196;-79
2023/02/12 05:03:04;;;;;;;24.33;11.83;;;;;;;;;;5104190;28;20200;-79
2023/02/12 05:05:31;;;;;;;69.60;33.87;;;;;;;;;;5090693;28;20617;-79
2023/02/12 05:07:58;;;;;;;31.70;16.40;;;;;;;;;;5110551;28;20204;-78
2023/02/12 05:10:26;;;;;;;23.00;12.20;;;;;;;;;;5111000;28;20567;-78
2023/02/12 05:12:53;;;;;;;11.03;7.03;;;;;;;;;;5103256;28;20253;-78
2023/02/12 05:15:20;;;;;;;4.97;4.20;;;;;;;;;;5092325;28;20703;-79
2023/02/12 05:17:47;;;;;;;21.23;11.33;;;;;;;;;;5111016;28;20206;-79
2023/02/12 05:20:14;;;;;;;10.47;6.20;;;;;;;;;;5109396;28;20204;-79
2023/02/12 05:22:41;;;;;;;562.13;256.10;;;;;;;;;;5107393;28;20210;-80
2023/02/12 05:25:08;;;;;;;124.37;48.30;;;;;;;;;;5108695;28;20223;-79
2023/02/12 05:27:36;;;;;;;37.80;16.97;;;;;;;;;;5110562;28;20678;-79
2023/02/12 05:30:04;;;;;;;61.93;25.67;;;;;;;;;;5108988;28;20196;-79
2023/02/12 05:32:31;;;;;;;19.03;8.97;;;;;;;;;;5108717;28;20232;-79
2023/02/12 05:34:58;;;;;;;19.33;12.33;;;;;;;;;;5107606;28;20280;-79
2023/02/12 05:37:24;;;;;;;249.17;107.60;;;;;;;;;;5102744;28;20200;-79
2023/02/12 05:39:52;;;;;;;211.17;102.93;;;;;;;;;;5092248;28;20200;-78
2023/02/12 05:42:19;;;;;;;51.30;28.13;;;;;;;;;;5102151;28;20868;-78
2023/02/12 05:44:47;;;;;;;124.57;71.70;;;;;;;;;;5092731;28;20234;-78
2023/02/12 05:47:14;;;;;;;67.57;39.77;;;;;;;;;;5110878;28;20191;-78
2023/02/12 05:49:41;;;;;;;16.40;10.33;;;;;;;;;;5107934;28;20216;-79
2023/02/12 05:52:08;;;;;;;46.93;33.10;;;;;;;;;;5090717;28;20211;-79
2023/02/12 05:54:37;;;;;;;25.37;18.50;;;;;;;;;;5107144;28;20574;-79
2023/02/12 05:57:04;;;;;;;24.50;16.70;;;;;;;;;;5100826;28;20291;-79
2023/02/12 05:59:30;;;;;;;21.03;13.03;;;;;;;;;;5110985;28;20207;-79
2023/02/12 06:01:59;;;;;;;15.23;10.43;;;;;;;;;;5110744;28;20252;-79
2023/02/12 06:04:28;;;;;;;12.70;8.30;;;;;;;;;;5092478;28;20200;-79
2023/02/12 06:06:55;;;;;;;9.50;6.70;;;;;;;;;;5102203;28;20204;-79
2023/02/12 06:09:23;;;;;;;8.90;6.67;;;;;;;;;;5105543;28;20204;-83
2023/02/12 06:11:49;;;;;;;44.60;22.20;;;;;;;;;;5102795;28;20725;-79
2023/02/12 06:14:18;;;;;;;18.53;11.37;;;;;;;;;;5090193;28;20226;-79
2023/02/12 06:16:46;;;;;;;71.57;42.27;;;;;;;;;;5103749;28;20200;-80
2023/02/12 06:19:15;;;;;;;19.67;12.50;;;;;;;;;;5110551;28;20280;-79
2023/02/12 06:21:41;;;;;;;6.57;5.60;;;;;;;;;;5097293;28;20674;-79
2023/02/12 06:24:09;;;;;;;24.37;12.03;;;;;;;;;;5113858;28;20203;-78
2023/02/12 06:26:39;;;;;;;40.93;17.30;;;;;;;;;;5099185;28;20273;-79
2023/02/12 06:29:06;;;;;;;20.50;11.77;;;;;;;;;;5093546;28;20204;-80
2023/02/12 06:31:34;;;;;;;20.93;14.17;;;;;;;;;;5107275;28;20203;-78
2023/02/12 06:34:03;;;;;;;9.27;7.30;;;;;;;;;;5102825;28;20203;-79
2023/02/12 06:36:31;;;;;;;10.30;6.97;;;;;;;;;;5097224;28;20207;-79
2023/02/12 06:39:00;;;;;;;9.90;6.17;;;;;;;;;;5093955;28;20264;-79
2023/02/12 06:41:27;;;;;;;46.37;29.33;;;;;;;;;;5110523;28;20260;-79
2023/02/12 06:43:53;;;;;;;49.30;34.87;;;;;;;;;;5113974;28;20604;-79
2023/02/12 06:46:20;;;;;;;42.53;30.53;;;;;;;;;;5100261;28;20203;-79
2023/02/12 06:48:47;;;;;;;27.17;18.57;;;;;;;;;;5113258;28;20195;-79
2023/02/12 06:51:15;;;;;;;31.13;23.67;;;;;;;;;;5103947;28;20199;-78
2023/02/12 06:53:45;;;;;;;29.53;22.67;;;;;;;;;;5113076;28;20199;-78
2023/02/12 06:56:13;;;;;;;24.70;15.63;;;;;;;;;;5112240;28;20227;-78
2023/02/12 06:58:40;;;;;;;17.47;13.73;;;;;;;;;;5112915;28;20690;-78
2023/02/12 07:01:13;;;;;;;16.87;11.73;;;;;;;;;;5098857;28;20204;-78
2023/02/12 07:03:40;;;;;;;13.67;8.33;;;;;;;;;;5113677;28;20207;-77
2023/02/12 07:06:08;;;;;;;8.83;6.83;;;;;;;;;;5109441;28;20193;-79
2023/02/12 07:08:35;;;;;;;32.87;19.60;;;;;;;;;;5103187;28;20252;-79
2023/02/12 07:11:06;;;;;;;25.80;15.77;;;;;;;;;;5106971;28;20206;-80
2023/02/12 07:13:34;;;;;;;29.87;19.30;;;;;;;;;;5101390;28;20204;-89
2023/02/12 07:16:04;;;;;;;47.10;26.27;;;;;;;;;;5110748;28;20258;-84
2023/02/12 07:18:31;;;;;;;26.07;17.53;;;;;;;;;;5112269;28;20257;-85
2023/02/12 07:20:58;;;;;;;25.70;17.37;;;;;;;;;;5097333;28;20617;-85
2023/02/12 07:23:25;;;;;;;111.00;64.67;;;;;;;;;;5108372;28;20211;-86
2023/02/12 07:25:56;;;;;;;38.40;27.00;;;;;;;;;;5112043;28;20204;-86
2023/02/12 07:28:24;;;;;;;25.60;19.60;;;;;;;;;;5104983;28;20233;-86
2023/02/12 07:30:51;;;;;;;52.00;26.90;;;;;;;;;;5102903;28;20268;-84
2023/02/12 07:33:19;;;;;;;23.57;17.13;;;;;;;;;;5112287;28;20203;-85
2023/02/12 07:35:46;;;;;;;19.57;14.60;;;;;;;;;;5113042;28;20239;-84
2023/02/12 07:38:13;;;;;;;22.53;13.30;;;;;;;;;;5112776;28;20624;-84
2023/02/12 07:40:40;;;;;;;14.27;9.67;;;;;;;;;;5077798;28;20268;-83
2023/02/12 07:43:07;;;;;;;15.77;9.90;;;;;;;;;;5099664;28;20195;-85
2023/02/12 07:45:36;;;;;;;14.07;10.63;;;;;;;;;;5093794;28;20223;-82
2023/02/12 07:48:03;;;;;;;28.80;15.87;;;;;;;;;;5098834;28;20202;-83
2023/02/12 07:50:30;;;;;;;29.47;16.30;;;;;;;;;;5101295;28;20264;-82
2023/02/12 07:52:59;;;;;;;29.07;18.47;;;;;;;;;;5110683;28;20203;-82
2023/02/12 07:55:26;;;;;;;26.80;16.50;;;;;;;;;;5094880;28;20231;-83
2023/02/12 07:57:53;;;;;;;19.33;12.23;;;;;;;;;;5093662;28;20192;-82
2023/02/12 08:00:20;;;;;;;11.57;8.17;;;;;;;;;;5090961;28;20203;-81
2023/02/12 08:02:53;;;;;;;8.50;6.93;;;;;;;;;;5110225;28;20285;-81
2023/02/12 08:05:20;;;;;;;11.27;8.13;;;;;;;;;;5097521;28;20208;-81
2023/02/12 08:07:46;;;;;;;11.03;7.33;;;;;;;;;;5108022;28;20192;-81
2023/02/12 08:10:13;;;;;;;10.87;7.53;;;;;;;;;;5109753;28;20203;-81
2023/02/12 08:12:40;;;;;;;11.00;6.60;;;;;;;;;;5111891;28;20207;-81
2023/02/12 08:15:08;;;;;;;10.40;7.33;;;;;;;;;;5109684;28;20729;-82
2023/02/12 08:17:36;;;;;;;10.70;8.30;;;;;;;;;;5103546;28;20215;-86
2023/02/12 08:20:08;;;;;;;9.40;6.37;;;;;;;;;;5105179;28;20203;-80
2023/02/12 08:22:37;;;;;;;12.83;6.87;;;;;;;;;;5108109;28;20264;-81
2023/02/12 08:25:04;;;;;;;7.77;6.27;;;;;;;;;;5094776;28;20203;-81
2023/02/12 08:27:31;;;;;;;11.63;7.47;;;;;;;;;;5111027;28;20218;-81
2023/02/12 08:29:59;;;;;;;9.37;6.43;;;;;;;;;;5110094;28;20207;-81
2023/02/12 08:32:28;;;;;;;9.50;8.00;;;;;;;;;;5108857;28;21220;-81
2023/02/12 08:34:55;;;;;;;7.23;6.10;;;;;;;;;;5111696;28;20226;-80
2023/02/12 08:37:26;;;;;;;10.93;5.03;;;;;;;;;;5102416;28;20200;-80
2023/02/12 08:39:52;;;;;;;11.90;7.40;;;;;;;;;;5109203;28;20195;-80
2023/02/12 08:42:19;;;;;;;14.27;12.80;;;;;;;;;;5103433;28;20611;-80
2023/02/12 08:44:46;;;;;;;13.90;9.60;;;;;;;;;;5109427;28;20220;-80
2023/02/12 08:47:13;;;;;;;7.30;5.90;;;;;;;;;;5111403;28;20210;-80
2023/02/12 08:49:40;;;;;;;8.87;5.57;;;;;;;;;;5099454;28;20742;-80
2023/02/12 08:52:06;;;;;;;11.63;7.93;;;;;;;;;;5102188;28;20593;-80
2023/02/12 08:54:35;;;;;;;14.07;5.83;;;;;;;;;;5097644;28;20289;-80
2023/02/12 08:57:03;;;;;;;9.03;6.17;;;;;;;;;;5111246;28;20206;-81
2023/02/12 08:59:30;;;;;;;13.83;8.50;;;;;;;;;;5106136;28;20196;-80
2023/02/12 09:01:57;;;;;;;9.57;6.73;;;;;;;;;;5098312;28;20211;-81
2023/02/12 09:04:26;;;;;;;9.23;5.60;;;;;;;;;;5103701;28;20200;-80
2023/02/12 09:06:53;;;;;;;9.40;5.53;;;;;;;;;;5089742;28;20654;-80
2023/02/12 09:09:20;;;;;;;13.47;9.37;;;;;;;;;;5103826;28;20211;-80
2023/02/12 09:11:49;;;;;;;14.03;8.67;;;;;;;;;;5102821;28;20200;-80
2023/02/12 09:14:17;;;;;;;10.77;7.00;;;;;;;;;;5107843;28;20226;-80
2023/02/12 09:16:44;;;;;;;10.63;6.93;;;;;;;;;;5110941;28;20223;-80
2023/02/12 09:19:13;;;;;;;21.73;16.17;;;;;;;;;;5097328;28;20199;-80
2023/02/12 09:21:40;;;;;;;9.13;6.57;;;;;;;;;;5096895;28;20211;-81
2023/02/12 09:24:08;;;;;;;8.63;6.13;;;;;;;;;;5090482;28;20193;-82
2023/02/12 09:26:35;;;;;;;10.53;7.20;;;;;;;;;;5094763;28;20274;-80
2023/02/12 09:29:04;;;;;;;7.67;6.10;;;;;;;;;;5105762;28;20199;-80
2023/02/12 09:31:32;;;;;;;11.70;7.53;;;;;;;;;;5097129;28;20713;-80
2023/02/12 09:34:00;;;;;;;9.67;7.47;;;;;;;;;;5110260;28;20570;-80
2023/02/12 09:36:28;;;;;;;10.23;7.23;;;;;;;;;;5094192;28;20215;-81
2023/02/12 09:38:55;;;;;;;9.33;6.90;;;;;;;;;;5107769;28;20681;-80
2023/02/12 09:41:49;;;;;;;7.87;6.93;;;;;;;;;;5108377;28;20729;-80
2023/02/12 09:44:22;;;;;;;8.07;6.27;;;;;;;;;;5095331;28;20226;-81
2023/02/12 09:46:51;;;;;;;9.43;6.47;;;;;;;;;;5110471;28;20203;-82
2023/02/12 09:49:26;;;;;;;8.90;6.43;;;;;;;;;;5097415;28;20253;-80
2023/02/12 09:51:53;;;;;;;7.67;6.23;;;;;;;;;;5110293;28;20206;-80
2023/02/12 09:54:22;;;;;;;6.43;5.20;;;;;;;;;;5110516;28;20701;-80
2023/02/12 09:56:51;;;;;;;10.30;6.97;;;;;;;;;;5111214;28;20231;-80
2023/02/12 09:59:26;;;;;;;6.03;4.97;;;;;;;;;;5105769;28;20196;-80
2023/02/12 10:01:53;;;;;;;9.87;6.13;;;;;;;;;;5094531;28;20196;-80
2023/02/12 10:04:20;;;;;;;11.70;7.13;;;;;;;;;;5111633;28;20211;-80
2023/02/12 10:06:59;;;;;;;50.37;27.00;;;;;;;;;;5095747;28;20207;-80
2023/02/12 10:09:38;;;;;;;100.63;48.07;;;;;;;;;;5105705;28;20252;-80
2023/02/12 10:12:13;;;;;;;9.03;7.13;;;;;;;;;;5110645;28;20195;-80
2023/02/12 10:15:00;;;;;;;76.20;35.00;;;;;;;;;;5100829;28;20199;-80
2023/02/12 10:17:34;;;;;;;12.60;7.53;;;;;;;;;;5100425;28;20691;-81
2023/02/12 10:20:15;;;;;;;13.87;7.40;;;;;;;;;;5104494;28;20200;-81
2023/02/12 10:22:49;;;;;;;37.93;25.90;;;;;;;;;;5112994;28;20203;-80
2023/02/12 10:25:24;;;;;;;17.70;13.00;;;;;;;;;;5101003;28;20565;-80
2023/02/12 10:27:52;;;;;;;37.97;26.07;;;;;;;;;;5093993;28;20303;-80
2023/02/12 10:30:27;;;;;;;47.43;30.93;;;;;;;;;;5108631;28;20196;-80
2023/02/12 10:32:59;;;;;;;14.73;12.80;;;;;;;;;;5114180;28;20222;-80
2023/02/12 10:35:26;;;;;;;11.70;7.50;;;;;;;;;;5099700;28;20686;-81
2023/02/12 10:37:57;;;;;;;11.37;8.30;;;;;;;;;;5114287;28;20196;-80
2023/02/12 10:40:27;;;;;;;21.30;14.17;;;;;;;;;;5100583;28;20205;-80
2023/02/12 10:42:54;;;;;;;21.27;15.10;;;;;;;;;;5113971;28;20217;-80
2023/02/12 10:45:25;;;;;;;9.53;8.50;;;;;;;;;;5100085;28;20231;-80
2023/02/12 10:47:54;;;;;;;8.47;6.90;;;;;;;;;;5101529;28;20215;-80
2023/02/12 10:50:26;;;;;;;10.10;7.67;;;;;;;;;;5107055;28;20258;-79
2023/02/12 10:52:55;;;;;;;9.57;6.30;;;;;;;;;;5107060;28;20196;-80
2023/02/12 10:55:27;;;;;;;12.20;7.57;;;;;;;;;;5100432;28;20203;-80
2023/02/12 10:57:55;;;;;;;9.83;5.63;;;;;;;;;;5098438;28;20269;-80
2023/02/12 11:00:26;;;;;;;8.77;6.30;;;;;;;;;;5101974;28;20706;-80
2023/02/12 11:03:02;;;;;;;10.13;7.07;;;;;;;;;;5096731;28;20204;-80
2023/02/12 11:05:30;;;;;;;8.50;6.07;;;;;;;;;;5093140;28;20273;-80
2023/02/12 11:07:57;;;;;;;8.03;6.30;;;;;;;;;;5097290;28;20196;-79
2023/02/12 11:10:30;;;;;;;7.87;6.37;;;;;;;;;;5101266;28;20747;-80
2023/02/12 11:12:58;;;;;;;7.37;6.13;;;;;;;;;;5101773;28;20279;-80
2023/02/12 11:15:30;;;;;;;7.87;7.00;;;;;;;;;;5097017;28;20200;-80
2023/02/12 11:17:58;;;;;;;7.57;6.10;;;;;;;;;;5105915;28;20248;-80
2023/02/12 11:20:27;;;;;;;11.70;7.20;;;;;;;;;;5111059;28;20206;-79
2023/02/12 11:22:56;;;;;;;22.60;14.03;;;;;;;;;;5107266;28;20205;-79
2023/02/12 11:25:28;;;;;;;41.47;20.67;;;;;;;;;;5112048;28;20206;-80
2023/02/12 11:28:05;;;;;;;17.87;11.63;;;;;;;;;;5112996;28;20203;-79
2023/02/12 11:30:33;;;;;;;19.30;12.33;;;;;;;;;;5092000;28;20736;-79
2023/02/12 11:33:17;;;;;;;16.20;11.27;;;;;;;;;;5106488;28;20203;-80
2023/02/12 11:35:52;;;;;;;17.67;11.87;;;;;;;;;;5102228;28;20204;-80
2023/02/12 11:38:24;;;;;;;16.20;8.80;;;;;;;;;;5102786;28;20615;-80
2023/02/12 11:40:55;;;;;;;14.10;7.03;;;;;;;;;;5111582;28;20231;-79
2023/02/12 11:43:23;;;;;;;12.27;7.47;;;;;;;;;;5111233;28;20590;-80
2023/02/12 11:45:55;;;;;;;11.73;6.70;;;;;;;;;;5108450;28;20238;-81
2023/02/12 11:48:24;;;;;;;8.53;6.67;;;;;;;;;;5107696;28;20283;-80
2023/02/12 11:50:54;;;;;;;12.50;8.03;;;;;;;;;;5094799;28;20203;-80
2023/02/12 11:53:25;;;;;;;14.13;8.27;;;;;;;;;;5103645;28;20732;-80
2023/02/12 11:55:55;;;;;;;10.83;7.60;;;;;;;;;;5105300;28;20238;-80
2023/02/12 11:58:24;;;;;;;10.77;7.43;;;;;;;;;;5111031;28;20264;-80
2023/02/12 12:00:57;;;;;;;10.47;6.67;;;;;;;;;;5097044;28;20199;-80
2023/02/12 12:03:27;;;;;;;9.50;6.10;;;;;;;;;;5101545;28;20208;-80
2023/02/12 12:05:57;;;;;;;8.70;6.70;;;;;;;;;;5101863;28;20207;-80
2023/02/12 12:08:26;;;;;;;9.47;6.53;;;;;;;;;;5100561;28;20215;-80
2023/02/12 12:11:00;;;;;;;13.37;9.67;;;;;;;;;;5104938;28;20205;-80
2023/02/12 12:13:31;;;;;;;13.30;8.57;;;;;;;;;;5104874;28;20207;-80
2023/02/12 12:21:45;;;;;;;9.07;6.97;;;;;;;;;;5098422;28;20256;-80
2023/02/12 12:24:16;;;;;;;18.87;12.83;;;;;;;;;;5103548;28;20229;-80
2023/02/12 12:26:48;;;;;;;15.07;11.43;;;;;;;;;;5105125;28;20204;-79
2023/02/12 12:29:20;;;;;;;10.13;6.63;;;;;;;;;;5101756;28;20616;-79
2023/02/12 12:31:51;;;;;;;13.50;8.90;;;;;;;;;;5106578;28;20218;-79
2023/02/12 12:34:19;;;;;;;9.03;8.03;;;;;;;;;;5111482;28;20582;-79
2023/02/12 12:37:06;;;;;;;10.27;6.80;;;;;;;;;;5096786;28;20220;-77
2023/02/12 12:39:37;;;;;;;11.03;7.43;;;;;;;;;;5102869;28;20199;-77
2023/02/12 12:42:36;;;;;;;11.83;7.90;;;;;;;;;;5097529;28;20206;-77
2023/02/12 12:45:14;;;;;;;44.43;14.10;;;;;;;;;;5080378;28;20228;-78
2023/02/12 12:47:57;;;;;;;13.73;8.20;;;;;;;;;;5103659;28;20203;-77
2023/02/12 12:50:43;;;;;;;9.60;6.73;;;;;;;;;;5103122;28;20678;-77
2023/02/12 12:53:28;;;;;;;12.47;6.07;;;;;;;;;;5090730;28;20193;-77
2023/02/12 12:56:13;;;;;;;9.33;7.00;;;;;;;;;;5090741;28;20206;-78
2023/02/12 12:58:53;;;;;;;10.27;7.93;;;;;;;;;;5090721;28;20265;-79
2023/02/12 13:01:41;;;;;;;9.73;6.97;;;;;;;;;;5108366;28;20199;-79
2023/02/12 13:04:37;;;;;;;9.80;7.47;;;;;;;;;;5097645;28;20207;-79
2023/02/12 13:07:19;;;;;;;10.40;6.77;;;;;;;;;;5110497;28;20199;-79
2023/02/12 13:10:07;;;;;;;9.03;7.67;;;;;;;;;;5104094;28;20249;-78
2023/02/12 13:12:54;;;;;;;8.63;6.63;;;;;;;;;;5093051;28;20207;-80
2023/02/12 13:15:27;;;;;;;16.30;12.40;;;;;;;;;;5097000;28;20204;-79
2023/02/12 13:18:01;;;;;;;10.93;7.27;;;;;;;;;;5101367;28;20227;-79
2023/02/12 13:20:40;;;;;;;15.20;8.63;;;;;;;;;;5104217;28;20671;-79
2023/02/12 13:23:13;;;;;;;11.90;6.73;;;;;;;;;;5090937;28;20199;-79
2023/02/12 13:25:45;;;;;;;8.63;7.30;;;;;;;;;;5104450;28;20192;-79
2023/02/12 13:28:18;;;;;;;7.90;6.30;;;;;;;;;;5110293;28;20582;-79
2023/02/12 13:30:47;;;;;;;8.87;6.93;;;;;;;;;;5091489;28;20200;-79
2023/02/12 13:33:18;;;;;;;10.70;7.67;;;;;;;;;;5111080;28;20741;-79
2023/02/12 13:35:48;;;;;;;8.97;6.53;;;;;;;;;;5108574;28;20199;-80
2023/02/12 13:38:19;;;;;;;9.90;6.50;;;;;;;;;;5094607;28;20220;-79
2023/02/12 13:40:48;;;;;;;9.30;6.70;;;;;;;;;;5104934;28;20199;-79
2023/02/12 13:43:27;;;;;;;15.40;10.23;;;;;;;;;;5103513;28;20187;-79
2023/02/12 13:45:59;;;;;;;14.13;8.70;;;;;;;;;;5112722;28;20249;-79
2023/02/12 13:48:41;;;;;;;9.87;7.80;;;;;;;;;;5114332;28;20192;-79
2023/02/12 13:51:17;;;;;;;9.77;7.97;;;;;;;;;;5113526;28;20590;-80
2023/02/12 13:53:55;;;;;;;8.90;6.70;;;;;;;;;;5112493;28;20199;-79
2023/02/12 13:56:34;;;;;;;11.53;6.90;;;;;;;;;;5094286;28;20200;-79
2023/02/12 13:59:01;;;;;;;26.23;17.77;;;;;;;;;;5094832;28;20253;-79
2023/02/12 14:01:40;;;;;;;18.63;13.70;;;;;;;;;;5093964;28;20216;-79
2023/02/12 14:04:23;;;;;;;9.73;7.70;;;;;;;;;;5094287;28;20286;-79
2023/02/12 14:06:57;;;;;;;10.10;7.23;;;;;;;;;;5107967;28;20212;-79
2023/02/12 14:09:31;;;;;;;10.50;7.13;;;;;;;;;;5094394;28;20630;-79
2023/02/12 14:11:58;;;;;;;9.77;7.23;;;;;;;;;;5100345;28;20291;-79
2023/02/12 14:14:28;;;;;;;11.07;7.87;;;;;;;;;;5102015;28;20191;-79
2023/02/12 14:16:56;;;;;;;9.17;6.37;;;;;;;;;;5099149;28;20224;-79
2023/02/12 14:19:39;;;;;;;8.27;6.93;;;;;;;;;;5093645;28;20733;-79
2023/02/12 14:22:14;;;;;;;7.80;6.50;;;;;;;;;;5111485;28;20670;-80
2023/02/12 14:24:50;;;;;;;9.50;6.47;;;;;;;;;;5114288;28;20576;-79
2023/02/12 14:27:23;;;;;;;9.43;6.80;;;;;;;;;;5113820;28;20199;-79
2023/02/12 14:30:33;;;;;;;9.50;6.27;;;;;;;;;;5099301;28;20196;-79
2023/02/12 14:33:22;;;;;;;7.77;6.30;;;;;;;;;;5093894;28;20196;-79
2023/02/12 14:35:51;;;;;;;9.13;7.00;;;;;;;;;;5103563;28;20205;-79
2023/02/12 14:39:00;;;;;;;10.87;7.93;;;;;;;;;;5111413;28;20651;-79
2023/02/12 14:41:43;;;;;;;10.47;7.10;;;;;;;;;;5089649;28;20203;-79
2023/02/12 14:44:44;;;;;;;9.53;7.67;;;;;;;;;;5097962;28;20227;-79
2023/02/12 14:47:47;;;;;;;8.97;6.90;;;;;;;;;;5093399;28;20203;-78
2023/02/12 14:50:18;;;;;;;10.43;7.23;;;;;;;;;;5088149;28;20206;-79
2023/02/12 14:52:49;;;;;;;9.57;6.80;;;;;;;;;;5099720;28;20208;-78
2023/02/12 14:55:23;;;;;;;11.70;8.47;;;;;;;;;;5103539;28;20208;-79
2023/02/12 14:57:59;;;;;;;11.30;8.07;;;;;;;;;;5106594;28;20713;-78
2023/02/12 15:00:29;;;;;;;12.10;8.10;;;;;;;;;;5101729;28;20195;-78
2023/02/12 15:02:59;;;;;;;11.17;7.53;;;;;;;;;;5098695;28;20207;-78